Time;durP1;ratioP1;P1;durP2;ratioP2;P2;SDS_P1;SDS_P2;PMS_P1;PMS_P2;Temp;Humidity;BMP_temperature;BMP_pressure;BME280_temperature;BME280_humidity;BME280_pressure;Samples;Min_cycle;Max_cycle;Signal;HPM_P1;HPM_P2
2022/06/02 00:02:28;;;;;;;29.17;19.13;;;;;;;22.75;79.47;100661.69;5014413;28;20506;-81
2022/06/02 00:05:00;;;;;;;36.45;24.50;;;;;;;22.66;79.96;100654.66;5014318;28;20033;-80
2022/06/02 00:07:50;;;;;;;60.03;26.50;;;;;;;22.71;80.81;100654.94;5014838;28;20030;-81
2022/06/02 00:10:59;;;;;;;45.38;26.63;;;;;;;22.67;80.77;100648.16;5014393;28;20036;-80
2022/06/02 00:13:36;;;;;;;43.33;25.42;;;;;;;22.73;80.75;100650.06;4997586;28;20030;-81
2022/06/02 00:16:07;;;;;;;44.33;26.20;;;;;;;22.77;80.72;100654.13;5015369;28;20058;-82
2022/06/02 00:18:45;;;;;;;38.15;24.02;;;;;;;22.80;80.62;100652.00;5014911;28;20049;-81
2022/06/02 00:21:35;;;;;;;41.70;25.65;;;;;;;22.78;80.38;100647.56;5014441;28;20017;-80
2022/06/02 00:24:27;;;;;;;55.05;27.42;;;;;;;22.76;80.28;100649.66;4996599;28;20022;-81
2022/06/02 00:26:56;;;;;;;42.05;26.58;;;;;;;22.78;80.28;100652.22;4996848;28;20029;-81
2022/06/02 00:29:40;;;;;;;39.75;26.88;;;;;;;22.82;80.31;100655.38;5014686;28;20048;-81
2022/06/02 00:32:17;;;;;;;41.15;23.83;;;;;;;22.82;79.82;100649.91;5014017;28;20096;-81
2022/06/02 00:34:49;;;;;;;40.15;25.30;;;;;;;22.82;79.75;100647.16;5013346;28;20532;-81
2022/06/02 00:37:15;;;;;;;;;;;;;;;22.83;79.50;100646.97;5014123;28;20034;-81
2022/06/02 00:39:40;;;;;;;46.47;24.60;;;;;;;22.76;79.48;100635.97;5014193;28;19910;-80
2022/06/02 00:42:24;;;;;;;39.53;24.92;;;;;;;22.82;79.45;100641.66;5013365;28;20030;-80
2022/06/02 00:44:54;;;;;;;35.95;24.02;;;;;;;22.78;79.21;100641.25;5013607;28;20100;-81
2022/06/02 00:47:58;;;;;;;44.45;23.60;;;;;;;22.76;79.16;100641.44;5013505;28;20114;-81
2022/06/02 00:50:57;;;;;;;38.85;22.67;;;;;;;22.75;79.57;100647.97;5013440;28;20033;-81
2022/06/02 00:53:41;;;;;;;39.40;23.15;;;;;;;22.66;79.52;100648.31;5002014;28;20123;-81
2022/06/02 00:59:30;;;;;;;42.55;24.45;;;;;;;22.49;80.73;100656.03;5014485;28;20690;-80
2022/06/02 01:01:56;;;;;;;40.95;22.98;;;;;;;22.50;80.71;100654.97;4995670;28;20022;-80
2022/06/02 01:04:22;;;;;;;35.50;22.65;;;;;;;22.53;80.33;100638.13;4995729;28;20034;-80
2022/06/02 01:06:54;;;;;;;43.65;24.10;;;;;;;22.56;80.46;100656.91;5012945;28;20030;-80
2022/06/02 01:09:31;;;;;;;48.55;23.63;;;;;;;22.52;80.46;100658.34;4996567;28;20029;-80
2022/06/02 01:12:15;;;;;;;35.35;24.20;;;;;;;22.47;80.85;100649.06;5014200;28;20030;-80
2022/06/02 01:14:58;;;;;;;40.97;24.02;;;;;;;22.47;80.59;100638.94;5013662;28;20029;-80
2022/06/02 01:18:01;;;;;;;40.17;24.63;;;;;;;22.47;80.77;100647.16;4995803;28;20133;-81
2022/06/02 01:20:36;;;;;;;40.53;23.40;;;;;;;22.46;80.67;100650.94;4995652;28;20037;-81
2022/06/02 01:23:04;;;;;;;46.22;24.58;;;;;;;22.45;81.00;100657.47;5016665;28;20044;-81
2022/06/02 01:26:07;;;;;;;45.58;24.40;;;;;;;22.47;80.88;100652.66;5017614;28;20029;-80
2022/06/02 01:28:47;;;;;;;45.00;24.33;;;;;;;22.43;81.12;100654.09;5017524;28;20029;-81
2022/06/02 01:31:42;;;;;;;47.03;24.25;;;;;;;22.54;80.49;100644.44;5017560;28;20535;-81
2022/06/02 01:34:37;;;;;;;47.88;26.65;;;;;;;22.49;80.00;100647.78;5017025;28;20137;-80
2022/06/02 01:37:12;;;;;;;41.42;25.98;;;;;;;22.48;79.71;100639.75;5017364;28;20029;-80
2022/06/02 01:40:19;;;;;;;47.15;25.38;;;;;;;22.44;80.11;100650.31;5016842;28;20033;-80
2022/06/02 01:43:09;;;;;;;35.03;24.48;;;;;;;22.52;79.49;100650.13;5003884;28;20196;-81
2022/06/02 01:45:43;;;;;;;40.38;23.40;;;;;;;22.51;79.46;100650.31;5017060;28;20029;-80
2022/06/02 01:48:15;;;;;;;45.10;24.63;;;;;;;22.50;79.40;100644.03;5017392;28;20091;-81
2022/06/02 01:51:28;;;;;;;46.53;24.73;;;;;;;22.47;79.14;100646.31;5017043;28;20025;-80
2022/06/02 01:54:15;;;;;;;;;;;;;;;22.43;79.27;100643.13;4996073;28;20073;-80
2022/06/02 01:56:49;;;;;;;43.22;23.83;;;;;;;22.36;79.46;100636.75;5016755;28;20367;-81
2022/06/02 01:59:44;;;;;;;39.33;22.58;;;;;;;22.36;79.80;100647.69;4999172;28;20491;-81
2022/06/02 02:02:38;;;;;;;50.60;24.75;;;;;;;22.34;79.81;100641.59;4984874;28;20038;-81
2022/06/02 02:05:18;;;;;;;42.25;23.90;;;;;;;22.39;79.64;100651.94;5016527;28;20455;-80
2022/06/02 02:08:17;;;;;;;53.13;25.92;;;;;;;22.36;79.50;100655.94;4998782;28;20407;-81
2022/06/02 02:10:57;;;;;;;40.17;25.20;;;;;;;22.39;79.13;100658.25;4995781;28;20137;-81
2022/06/02 02:13:40;;;;;;;54.22;25.70;;;;;;;22.32;79.19;100637.34;5016599;28;20112;-80
2022/06/02 02:16:24;;;;;;;39.83;24.95;;;;;;;22.35;78.88;100651.50;5015718;28;20043;-80
2022/06/02 02:19:08;;;;;;;45.95;24.75;;;;;;;22.28;78.69;100639.66;5016713;28;20058;-81
2022/06/02 02:21:47;;;;;;;38.22;23.73;;;;;;;22.26;78.66;100651.88;5016097;28;20017;-81
2022/06/02 02:24:33;;;;;;;48.78;25.02;;;;;;;22.30;78.47;100647.66;5016024;28;20088;-79
2022/06/02 02:27:11;;;;;;;38.42;21.67;;;;;;;22.26;78.31;100646.38;5016184;28;20053;-81
2022/06/02 02:30:05;;;;;;;50.38;21.45;;;;;;;22.20;78.29;100640.63;5016035;28;20072;-81
2022/06/02 02:32:56;;;;;;;34.03;20.23;;;;;;;22.23;77.74;100642.16;5016029;28;20492;-80
2022/06/02 02:35:40;;;;;;;50.20;22.42;;;;;;;22.21;77.82;100639.59;5015405;28;20412;-81
2022/06/02 02:38:14;;;;;;;41.30;19.23;;;;;;;22.20;77.74;100648.00;5015907;28;20038;-81
2022/06/02 02:40:44;;;;;;;34.80;19.45;;;;;;;22.18;77.79;100637.25;5015991;28;20381;-82
2022/06/02 02:43:17;;;;;;;33.88;19.08;;;;;;;22.23;77.20;100647.63;5015694;28;20034;-80
2022/06/02 02:46:19;;;;;;;34.83;16.83;;;;;;;22.18;77.44;100647.38;5015792;28;20484;-81
2022/06/02 02:48:56;;;;;;;34.15;17.83;;;;;;;22.22;77.71;100648.66;5011738;28;20049;-81
2022/06/02 02:51:45;;;;;;;32.45;16.17;;;;;;;22.24;77.08;100654.78;4998795;28;20025;-81
2022/06/02 02:54:26;;;;;;;32.10;17.17;;;;;;;22.24;76.43;100650.16;5016890;28;20480;-82
2022/06/02 02:56:51;;;;;;;27.00;14.95;;;;;;;22.28;76.25;100656.09;5017386;28;20116;-81
2022/06/02 02:59:22;;;;;;;30.73;15.77;;;;;;;22.20;76.31;100643.38;5016312;28;20080;-82
2022/06/02 03:01:59;;;;;;;35.40;15.68;;;;;;;22.28;76.40;100661.56;5015701;28;20381;-81
2022/06/02 03:04:50;;;;;;;31.10;17.17;;;;;;;22.30;77.14;100669.56;5015602;28;20037;-78
2022/06/02 03:07:17;;;;;;;29.73;17.20;;;;;;;22.31;77.25;100668.53;5015315;28;20033;-81
2022/06/02 03:10:04;;;;;;;33.15;15.52;;;;;;;22.47;76.14;100665.50;5015632;28;20488;-79
2022/06/02 03:12:39;;;;;;;24.80;14.30;;;;;;;22.54;75.41;100672.69;5015203;28;20114;-79
2022/06/02 03:15:07;;;;;;;30.02;15.30;;;;;;;22.54;75.57;100671.84;5015716;28;20122;-82
2022/06/02 03:18:10;;;;;;;21.75;13.32;;;;;;;22.58;74.81;100674.00;5015527;28;20030;-85
2022/06/02 03:20:57;;;;;;;27.80;13.23;;;;;;;22.56;74.47;100669.78;5016124;28;20022;-84
2022/06/02 03:23:45;;;;;;;30.13;11.27;;;;;;;22.47;74.44;100666.34;5007490;28;20562;-83
2022/06/02 03:26:16;;;;;;;42.60;12.02;;;;;;;22.41;74.48;100661.69;4999376;28;20030;-85
2022/06/02 03:29:16;;;;;;;25.87;11.43;;;;;;;22.51;74.24;100666.75;4995973;28;20386;-81
2022/06/02 03:32:19;;;;;;;28.70;11.43;;;;;;;22.62;73.78;100669.81;4996286;28;20495;-83
2022/06/02 03:35:07;;;;;;;68.78;12.38;;;;;;;22.64;73.55;100662.22;4994782;28;20054;-82
2022/06/02 03:37:58;;;;;;;29.35;10.43;;;;;;;22.63;73.72;100668.75;4995887;28;20026;-81
2022/06/02 03:41:01;;;;;;;21.85;11.88;;;;;;;22.73;73.68;100665.69;4994111;28;20084;-76
2022/06/02 03:43:51;;;;;;;26.20;10.80;;;;;;;22.74;73.64;100668.22;4994201;28;20073;-76
2022/06/02 03:46:44;;;;;;;27.02;11.55;;;;;;;22.77;73.53;100670.56;4994844;28;20022;-77
2022/06/02 03:49:32;;;;;;;29.77;9.13;;;;;;;22.82;73.47;100671.84;4995825;28;20041;-83
2022/06/02 03:52:10;;;;;;;28.70;12.38;;;;;;;22.80;73.50;100666.56;4994982;28;20038;-77
2022/06/02 03:54:43;;;;;;;26.00;10.00;;;;;;;22.89;73.77;100678.22;4994645;28;20041;-77
2022/06/02 03:57:14;;;;;;;41.85;11.75;;;;;;;23.01;73.27;100679.31;4994713;28;20034;-79
2022/06/02 04:00:11;;;;;;;22.87;10.40;;;;;;;23.11;71.77;100652.34;4976733;28;20473;-78
2022/06/02 04:02:45;;;;;;;32.13;14.75;;;;;;;23.04;72.18;100667.94;4994447;28;20030;-79
2022/06/02 04:05:31;;;;;;;36.85;19.75;;;;;;;23.10;72.48;100675.34;4994642;28;20176;-79
2022/06/02 04:08:19;;;;;;;43.47;22.40;;;;;;;23.13;73.17;100663.97;4995441;28;20108;-77
2022/06/02 04:10:49;;;;;;;43.10;22.77;;;;;;;23.14;73.00;100672.00;4995150;28;20026;-88
2022/06/02 04:13:39;;;;;;;40.40;24.15;;;;;;;23.23;72.68;100672.66;4994909;28;20033;-78
2022/06/02 04:16:16;;;;;;;56.42;25.40;;;;;;;23.21;73.10;100681.09;4994509;28;20057;-79
2022/06/02 04:18:42;;;;;;;52.53;24.38;;;;;;;23.31;72.88;100680.69;4993874;28;20038;-78
2022/06/02 04:21:46;;;;;;;39.97;24.65;;;;;;;23.27;73.11;100673.97;4976904;28;20030;-78
2022/06/02 04:24:33;;;;;;;54.95;26.17;;;;;;;23.38;73.31;100675.25;4995086;28;20024;-85
2022/06/02 04:27:08;;;;;;;54.63;28.05;;;;;;;23.41;73.37;100689.44;4977290;28;20056;-81
2022/06/02 04:30:15;;;;;;;56.60;32.90;;;;;;;23.47;72.81;100690.50;4994627;28;20041;-81
2022/06/02 04:33:08;;;;;;;77.60;48.25;;;;;;;23.46;72.89;100689.66;4994019;28;20030;-83
2022/06/02 04:35:57;;;;;;;;;;;;;;;23.51;72.49;100687.16;4977554;28;20065;-84
2022/06/02 04:39:01;;;;;;;69.95;36.17;;;;;;;23.56;72.73;100689.25;4995412;28;19910;-89
2022/06/02 04:41:46;;;;;;;45.75;26.88;;;;;;;23.56;71.96;100684.63;4971324;28;20072;-76
2022/06/02 04:44:12;;;;;;;61.80;27.75;;;;;;;23.58;72.45;100688.00;4993064;28;20030;-76
2022/06/02 04:47:22;;;;;;;48.17;23.33;;;;;;;23.61;72.31;100697.72;4992575;28;20038;-77
2022/06/02 04:49:54;;;;;;;40.58;21.10;;;;;;;23.61;72.25;100684.81;4951931;29;20437;-76
2022/06/02 04:52:54;;;;;;;43.33;20.43;;;;;;;23.69;72.12;100692.91;4951877;29;20034;-76
2022/06/02 04:55:49;;;;;;;53.13;25.02;;;;;;;23.72;71.64;100680.63;4984145;28;20070;-76
2022/06/02 04:58:22;;;;;;;55.05;29.65;;;;;;;23.85;71.29;100705.38;4949376;28;20046;-76
2022/06/02 05:01:00;;;;;;;65.25;30.67;;;;;;;23.89;71.29;100700.28;4981552;28;20022;-76
2022/06/02 05:03:30;;;;;;;71.30;30.80;;;;;;;23.92;71.11;100700.72;4999142;28;20026;-76
2022/06/02 05:06:17;;;;;;;60.30;28.00;;;;;;;23.98;71.13;100716.38;4999993;28;20026;-77
2022/06/02 05:09:02;;;;;;;61.67;28.73;;;;;;;23.96;70.81;100701.16;4999260;28;20547;-77
2022/06/02 05:11:50;;;;;;;58.22;27.38;;;;;;;24.12;70.76;100709.03;4999401;28;20030;-76
2022/06/02 05:14:36;;;;;;;57.22;26.88;;;;;;;24.09;70.54;100706.66;4999568;28;20089;-77
2022/06/02 05:17:29;;;;;;;56.05;27.92;;;;;;;24.15;69.92;100709.47;4999904;28;20072;-77
2022/06/02 05:20:10;;;;;;;55.53;27.40;;;;;;;24.13;69.87;100702.47;4986879;28;20496;-76
2022/06/02 05:23:13;;;;;;;47.05;25.58;;;;;;;24.10;70.62;100703.69;5004223;28;20027;-76
2022/06/02 05:25:51;;;;;;;65.75;27.60;;;;;;;24.20;70.71;100700.56;5007286;28;20036;-84
2022/06/02 05:28:29;;;;;;;58.90;26.38;;;;;;;24.35;70.34;100709.44;5011405;28;20057;-81
2022/06/02 05:31:16;;;;;;;60.42;27.67;;;;;;;24.41;69.91;100700.34;4993710;28;20030;-81
2022/06/02 05:33:52;;;;;;;47.85;28.42;;;;;;;24.45;69.80;100701.63;5013511;28;20058;-84
2022/06/02 05:36:48;;;;;;;63.17;27.77;;;;;;;24.54;69.89;100694.84;5012743;28;20026;-83
2022/06/02 05:39:28;;;;;;;63.47;27.83;;;;;;;24.62;70.01;100700.09;5013044;28;20026;-84
2022/06/02 05:42:13;;;;;;;73.47;33.38;;;;;;;24.67;69.61;100700.31;4982894;28;20065;-84
2022/06/02 05:44:47;;;;;;;53.50;28.52;;;;;;;24.72;69.39;100705.16;4999631;28;20033;-84
2022/06/02 05:47:27;;;;;;;70.88;27.77;;;;;;;24.81;68.69;100704.75;4999413;28;20096;-85
2022/06/02 05:49:58;;;;;;;53.30;27.23;;;;;;;24.87;68.38;100706.63;4999030;28;20026;-82
2022/06/02 05:52:30;;;;;;;68.93;32.10;;;;;;;24.88;68.10;100707.50;4999227;28;20038;-84
2022/06/02 05:55:20;;;;;;;64.93;29.63;;;;;;;24.94;68.27;100708.53;4998994;28;20038;-81
2022/06/02 05:58:03;;;;;;;51.90;31.27;;;;;;;24.98;67.38;100709.78;4999109;28;20026;-83
2022/06/02 06:01:08;;;;;;;59.00;29.63;;;;;;;24.93;67.44;100710.44;4998989;28;20031;-81
2022/06/02 06:04:07;;;;;;;53.15;28.83;;;;;;;24.74;67.45;100717.63;4999018;28;20083;-82
2022/06/02 06:06:43;;;;;;;55.15;29.52;;;;;;;24.70;67.35;100721.03;4981940;28;20030;-82
2022/06/02 06:09:41;;;;;;;59.88;28.17;;;;;;;24.81;66.96;100718.50;4996674;28;20088;-83
2022/06/02 06:12:12;;;;;;;55.83;28.35;;;;;;;24.95;66.25;100704.72;4996883;28;20026;-82
2022/06/02 06:14:59;;;;;;;51.00;26.00;;;;;;;25.03;65.82;100702.56;4997211;28;20048;-83
2022/06/02 06:17:51;;;;;;;34.55;22.67;;;;;;;25.03;65.17;100708.06;4996466;28;20027;-82
2022/06/02 06:20:33;;;;;;;57.87;26.70;;;;;;;25.05;64.87;100696.84;4979140;28;20429;-83
2022/06/02 06:23:10;;;;;;;51.90;26.27;;;;;;;25.08;64.67;100688.13;4996343;28;20042;-84
2022/06/02 06:25:49;;;;;;;40.58;23.40;;;;;;;25.28;64.67;100698.03;4996374;28;20114;-84
2022/06/02 06:28:18;;;;;;;38.95;23.48;;;;;;;25.26;64.14;100699.28;4996316;28;20408;-82
2022/06/02 06:30:44;;;;;;;42.13;23.98;;;;;;;25.29;64.03;100693.34;4995755;28;20031;-82
2022/06/02 06:33:37;;;;;;;44.00;23.80;;;;;;;25.44;63.55;100689.25;4978740;28;20477;-83
2022/06/02 06:36:25;;;;;;;41.33;21.75;;;;;;;25.55;63.35;100687.75;4995793;28;20034;-82
2022/06/02 06:39:02;;;;;;;38.90;19.90;;;;;;;25.59;62.59;100688.16;4995793;28;20026;-82
2022/06/02 06:41:55;;;;;;;34.92;17.42;;;;;;;25.54;62.50;100677.78;4996529;28;20025;-82
2022/06/02 06:44:35;;;;;;;29.92;17.25;;;;;;;25.76;62.29;100692.06;4995801;28;20026;-82
2022/06/02 06:47:19;;;;;;;36.75;17.02;;;;;;;25.90;61.97;100697.25;4995946;28;20045;-83
2022/06/02 06:49:53;;;;;;;21.58;15.10;;;;;;;25.97;61.87;100691.69;4996342;28;20098;-83
2022/06/02 06:52:46;;;;;;;23.10;14.32;;;;;;;26.09;61.12;100700.94;4978424;28;20038;-83
2022/06/02 06:55:29;;;;;;;;;;;;;;;26.17;60.70;100688.81;4996796;28;20034;-82
2022/06/02 06:58:31;;;;;;;20.52;12.50;;;;;;;26.32;60.50;100697.59;4996498;28;19969;-82
2022/06/02 07:01:03;;;;;;;24.92;11.80;;;;;;;26.45;59.78;100695.53;4977792;28;20536;-82
2022/06/02 07:04:03;;;;;;;34.15;12.20;;;;;;;26.58;59.31;100700.09;4996789;28;20113;-82
2022/06/02 07:06:48;;;;;;;26.13;10.75;;;;;;;26.77;58.82;100696.28;4992933;28;20042;-83
2022/06/02 07:09:21;;;;;;;37.95;11.55;;;;;;;26.95;58.49;100690.81;4995675;28;20034;-81
2022/06/02 07:15:04;;;;;;;25.15;8.30;;;;;;;27.20;56.69;100692.63;4995488;28;20064;-82
2022/06/02 07:17:54;;;;;;;20.17;7.43;;;;;;;27.37;55.78;100700.06;4995096;28;20038;-81
2022/06/02 07:20:31;;;;;;;31.50;9.18;;;;;;;27.45;55.49;100696.16;4994680;28;20473;-82
2022/06/02 07:23:14;;;;;;;66.28;11.35;;;;;;;27.69;54.94;100697.09;4995098;28;20049;-82
2022/06/02 07:26:07;;;;;;;32.67;9.75;;;;;;;27.77;55.58;100705.91;4994706;28;20064;-82
2022/06/02 07:28:56;;;;;;;24.95;10.20;;;;;;;27.83;55.90;100699.44;4994758;28;20037;-82
2022/06/02 07:31:30;;;;;;;32.20;8.85;;;;;;;27.83;53.93;100699.44;4996517;28;20040;-82
2022/06/02 07:34:27;;;;;;;24.83;8.68;;;;;;;27.67;54.51;100691.81;4994593;28;20520;-82
2022/06/02 07:37:08;;;;;;;23.70;8.05;;;;;;;27.72;53.89;100697.47;4995028;28;20058;-82
2022/06/02 07:40:18;;;;;;;20.10;7.93;;;;;;;27.85;53.99;100708.34;4994576;28;20448;-82
2022/06/02 07:42:56;;;;;;;33.80;8.18;;;;;;;27.88;53.85;100699.59;4994775;28;20118;-82
2022/06/02 07:45:36;;;;;;;30.88;8.57;;;;;;;27.82;53.85;100681.19;4994543;28;20041;-82
2022/06/02 07:48:11;;;;;;;23.33;7.57;;;;;;;27.98;52.85;100699.81;4994794;28;20539;-82
2022/06/02 07:50:43;;;;;;;34.58;8.10;;;;;;;28.07;52.21;100708.69;4976537;28;20026;-82
2022/06/02 07:53:28;;;;;;;25.63;8.50;;;;;;;28.23;52.89;100712.66;4995045;28;20046;-83
2022/06/02 07:56:11;;;;;;;25.73;9.05;;;;;;;28.31;52.50;100712.31;4994322;28;20026;-82
2022/06/02 07:59:16;;;;;;;20.73;8.18;;;;;;;28.38;52.17;100707.50;4994072;28;20026;-82
2022/06/02 08:02:29;;;;;;;22.27;8.52;;;;;;;28.31;52.85;100712.31;4976363;28;20385;-81
2022/06/02 08:05:14;;;;;;;18.48;9.68;;;;;;;28.28;53.81;100710.88;4941749;28;20054;-83
2022/06/02 08:07:52;;;;;;;30.42;11.63;;;;;;;27.79;56.97;100702.91;4994400;28;20030;-83
2022/06/02 08:10:56;;;;;;;28.50;11.10;;;;;;;27.96;57.28;100704.75;4993591;28;20035;-83
2022/06/02 08:14:00;;;;;;;23.55;10.15;;;;;;;28.07;57.01;100712.25;4993426;28;20033;-82
2022/06/02 08:16:35;;;;;;;32.70;10.73;;;;;;;28.15;57.20;100707.47;4936909;29;20034;-82
2022/06/02 08:19:23;;;;;;;25.40;10.75;;;;;;;28.24;57.37;100697.75;4988541;28;20141;-83
2022/06/02 08:21:56;;;;;;;19.75;10.15;;;;;;;28.45;56.53;100713.78;4994256;28;20034;-82
2022/06/02 08:24:30;;;;;;;24.33;8.90;;;;;;;28.50;55.44;100708.38;4976625;28;20405;-82
2022/06/02 08:27:23;;;;;;;33.13;10.23;;;;;;;28.62;55.53;100711.97;4994063;28;20037;-82
2022/06/02 08:30:14;;;;;;;21.02;9.23;;;;;;;28.57;56.42;100709.94;4994269;28;20043;-81
2022/06/02 08:33:04;;;;;;;20.40;9.32;;;;;;;28.63;56.74;100713.66;4993034;28;20093;-81
2022/06/02 08:36:06;;;;;;;24.63;9.38;;;;;;;28.68;56.57;100705.53;4993541;28;20076;-81
2022/06/02 08:39:16;;;;;;;43.90;9.77;;;;;;;28.81;56.35;100705.25;4993989;28;20562;-81
2022/06/02 08:41:48;;;;;;;49.30;11.82;;;;;;;28.93;55.71;100710.75;4983641;28;20061;-81
2022/06/02 08:44:41;;;;;;;23.27;8.90;;;;;;;29.01;55.98;100716.81;4993892;28;20037;-81
2022/06/02 08:47:44;;;;;;;16.02;8.27;;;;;;;28.93;55.59;100714.38;4994472;28;20261;-81
2022/06/02 08:50:25;;;;;;;28.05;9.55;;;;;;;28.74;55.85;100715.63;4976510;28;20437;-82
2022/06/02 08:53:27;;;;;;;27.27;11.45;;;;;;;28.82;56.14;100718.00;4994578;28;20047;-83
2022/06/02 08:56:11;;;;;;;31.33;9.80;;;;;;;28.81;56.55;100719.09;4994030;28;20034;-81
2022/06/02 08:59:08;;;;;;;29.67;9.98;;;;;;;28.69;56.78;100715.47;4995097;28;20022;-81
2022/06/02 09:01:50;;;;;;;27.05;9.93;;;;;;;28.38;58.04;100724.09;4994064;28;20022;-81
2022/06/02 09:04:53;;;;;;;17.88;10.02;;;;;;;28.42;58.18;100728.09;4993311;28;20022;-82
2022/06/02 09:07:27;;;;;;;19.58;8.48;;;;;;;28.38;57.74;100729.63;4993219;28;20037;-82
2022/06/02 09:10:30;;;;;;;43.83;10.05;;;;;;;28.45;57.80;100730.38;4993244;28;20113;-81
2022/06/02 09:13:22;;;;;;;24.67;9.82;;;;;;;28.50;58.80;100727.75;4993214;28;20113;-83
2022/06/02 09:16:12;;;;;;;22.75;10.88;;;;;;;28.50;58.52;100728.56;4994141;28;20050;-81
2022/06/02 09:19:05;;;;;;;23.52;9.77;;;;;;;28.53;57.00;100730.03;4993244;28;20022;-81
2022/06/02 09:22:09;;;;;;;26.92;9.48;;;;;;;28.62;57.26;100725.81;4993347;28;20084;-81
2022/06/02 09:25:02;;;;;;;23.35;9.32;;;;;;;28.53;57.51;100727.28;4993660;28;20499;-81
2022/06/02 09:27:39;;;;;;;22.83;9.00;;;;;;;28.54;56.72;100732.53;4994127;28;20077;-84
2022/06/02 09:30:11;;;;;;;23.55;9.30;;;;;;;28.46;56.46;100712.69;4993525;28;20026;-81
2022/06/02 09:32:55;;;;;;;21.58;9.60;;;;;;;28.48;55.65;100719.66;4993270;28;20018;-83
2022/06/02 09:35:24;;;;;;;19.80;8.55;;;;;;;28.57;55.81;100722.91;4993640;28;20056;-84
2022/06/02 09:38:05;;;;;;;19.52;7.70;;;;;;;28.61;55.82;100729.66;4993267;28;20481;-83
2022/06/02 09:40:48;;;;;;;20.55;9.32;;;;;;;28.64;55.46;100734.72;4994660;28;20026;-83
2022/06/02 09:43:38;;;;;;;15.52;8.07;;;;;;;28.76;54.91;100732.81;4994688;28;20030;-82
2022/06/02 09:46:16;;;;;;;15.52;7.72;;;;;;;28.81;55.06;100735.69;4996970;28;20173;-82
2022/06/02 09:49:11;;;;;;;20.17;8.95;;;;;;;28.84;55.98;100742.69;4996737;28;20030;-82
2022/06/02 09:51:51;;;;;;;28.33;10.25;;;;;;;28.61;55.90;100749.03;4996597;28;20022;-81
2022/06/02 09:54:42;;;;;;;20.75;9.88;;;;;;;28.32;57.40;100749.94;4997414;28;20548;-83
2022/06/02 10:00:46;;;;;;;22.20;10.00;;;;;;;28.28;57.86;100746.00;4996851;28;20144;-83
2022/06/02 10:03:22;;;;;;;19.73;8.30;;;;;;;28.40;56.70;100749.63;4995902;28;20053;-83
2022/06/02 10:06:14;;;;;;;27.48;8.27;;;;;;;28.33;55.46;100746.13;4996114;28;20023;-83
2022/06/02 10:09:03;;;;;;;25.30;8.60;;;;;;;28.42;55.69;100752.97;4997081;28;20022;-83
2022/06/02 10:15:18;;;;;;;17.45;9.15;;;;;;;28.50;56.94;100749.88;4997290;28;20038;-82
2022/06/02 10:18:11;;;;;;;23.70;11.07;;;;;;;28.74;56.91;100750.78;4997275;28;20050;-82
2022/06/02 10:20:42;;;;;;;23.05;9.85;;;;;;;28.89;56.64;100748.34;4997653;28;20025;-84
2022/06/02 10:23:21;;;;;;;;;;;;;;;28.46;57.45;100751.44;4999516;28;20030;-82
2022/06/02 10:25:57;;;;;;;37.33;10.77;;;;;;;28.55;58.07;100753.63;4996083;28;19910;-82
2022/06/02 10:28:59;;;;;;;22.95;10.57;;;;;;;28.63;58.36;100756.03;4996617;28;20037;-83
2022/06/02 10:31:46;;;;;;;30.65;10.98;;;;;;;28.52;58.98;100747.72;4996034;28;20104;-82
2022/06/02 10:34:40;;;;;;;25.38;11.35;;;;;;;28.35;59.05;100746.72;4977602;28;20054;-82
2022/06/02 10:37:08;;;;;;;28.13;10.80;;;;;;;28.45;59.67;100752.50;4995993;28;20113;-82
2022/06/02 10:40:00;;;;;;;20.00;9.70;;;;;;;28.56;59.85;100749.75;4995349;28;20037;-82
2022/06/02 10:43:13;;;;;;;21.20;9.95;;;;;;;28.74;58.95;100743.31;4995885;28;20033;-83
2022/06/02 10:45:41;;;;;;;;;;;;;;;28.76;58.11;100748.59;4996636;28;20030;-81
2022/06/02 10:48:15;;;;;;;15.43;9.68;;;;;;;28.61;58.69;100743.50;4995309;28;20000;-82
2022/06/02 10:50:55;;;;;;;36.95;10.40;;;;;;;28.57;58.33;100750.59;4996307;28;20049;-82
2022/06/02 10:53:41;;;;;;;18.75;9.43;;;;;;;28.56;58.16;100737.84;4995849;28;20062;-82
2022/06/02 10:56:18;;;;;;;16.15;9.02;;;;;;;28.67;57.56;100734.28;4977220;28;20030;-81
2022/06/02 10:58:56;;;;;;;25.23;8.00;;;;;;;28.69;56.64;100717.41;4977605;28;20393;-82
2022/06/02 11:01:46;;;;;;;22.73;9.73;;;;;;;28.92;56.30;100732.09;4977412;28;20125;-82
2022/06/02 11:04:20;;;;;;;18.92;8.70;;;;;;;28.84;55.69;100735.22;4996170;28;20287;-82
2022/06/02 11:07:05;;;;;;;14.13;9.32;;;;;;;28.88;56.79;100730.03;4995949;28;20461;-82
2022/06/02 11:10:20;;;;;;;17.90;8.25;;;;;;;28.92;55.88;100731.25;4996979;28;20026;-82
2022/06/02 11:13:10;;;;;;;23.35;8.80;;;;;;;28.84;55.54;100735.22;4979970;28;20122;-83
2022/06/02 11:15:54;;;;;;;19.25;9.90;;;;;;;28.95;55.97;100730.78;5000777;28;20085;-82
2022/06/02 11:18:34;;;;;;;28.15;10.15;;;;;;;28.79;56.78;100734.25;4996592;28;20026;-81
2022/06/02 11:21:15;;;;;;;21.92;9.20;;;;;;;28.65;57.25;100730.91;4996679;28;20018;-82
2022/06/02 11:24:08;;;;;;;16.75;9.13;;;;;;;28.44;57.41;100734.25;4997198;28;20097;-82
2022/06/02 11:26:48;;;;;;;18.88;9.45;;;;;;;28.36;58.14;100732.66;4996992;28;20045;-82
2022/06/02 11:29:19;;;;;;;22.25;9.43;;;;;;;28.42;58.50;100739.16;4996080;28;20034;-82
2022/06/02 11:32:04;;;;;;;40.10;11.70;;;;;;;28.63;58.03;100738.56;4996126;28;20030;-82
2022/06/02 11:34:59;;;;;;;24.08;9.40;;;;;;;28.54;57.60;100728.94;5005987;28;20081;-82
2022/06/02 11:37:33;;;;;;;35.65;9.40;;;;;;;28.79;57.17;100732.34;5000486;28;20073;-81
2022/06/02 11:40:31;;;;;;;22.55;10.02;;;;;;;28.98;56.34;100730.28;4995617;28;20495;-81
2022/06/02 11:43:13;;;;;;;47.90;12.65;;;;;;;29.20;55.28;100744.34;4979950;28;20045;-82
2022/06/02 11:46:03;;;;;;;18.10;9.00;;;;;;;29.34;55.33;100732.78;4994641;28;20546;-82
2022/06/02 11:48:43;;;;;;;18.00;8.60;;;;;;;29.46;54.74;100728.03;4996425;28;20030;-80
2022/06/02 11:51:35;;;;;;;20.02;8.63;;;;;;;29.56;55.29;100727.41;4995587;28;20503;-81
2022/06/02 11:54:19;;;;;;;23.60;10.18;;;;;;;29.45;55.40;100719.94;4993211;28;20050;-82
2022/06/02 11:56:57;;;;;;;20.40;8.77;;;;;;;29.30;55.50;100727.94;4994433;28;20458;-82
2022/06/02 11:59:51;;;;;;;15.75;9.45;;;;;;;29.07;55.89;100732.44;4995227;28;20030;-82
2022/06/02 12:02:57;;;;;;;24.02;10.10;;;;;;;28.72;57.57;100720.53;4995754;28;20033;-81
2022/06/02 12:05:29;;;;;;;26.00;11.35;;;;;;;28.74;57.56;100718.41;4953673;28;20498;-81
2022/06/02 12:08:23;;;;;;;23.83;10.17;;;;;;;28.97;57.68;100710.06;4989153;28;20046;-82
2022/06/02 12:11:16;;;;;;;20.20;10.07;;;;;;;28.79;58.28;100709.34;4995880;28;20037;-80
2022/06/02 12:14:16;;;;;;;26.77;11.82;;;;;;;28.67;58.70;100701.06;4995397;28;20038;-81
2022/06/02 12:17:17;;;;;;;25.58;12.35;;;;;;;28.67;59.72;100700.22;4946855;28;20042;-81
2022/06/02 12:20:04;;;;;;;25.17;10.57;;;;;;;28.61;59.10;100693.69;4973483;28;20045;-81
2022/06/02 12:22:48;;;;;;;17.88;11.23;;;;;;;28.72;58.78;100698.38;4977445;28;20030;-82
2022/06/02 12:25:37;;;;;;;26.65;12.40;;;;;;;28.76;58.61;100685.75;4994396;28;20109;-82
2022/06/02 12:28:17;;;;;;;23.38;11.55;;;;;;;28.53;58.54;100685.75;4993878;28;20046;-82
2022/06/02 12:30:49;;;;;;;35.60;14.35;;;;;;;28.50;60.15;100684.28;4993834;28;20030;-82
2022/06/02 12:33:14;;;;;;;29.05;11.90;;;;;;;28.68;58.82;100679.75;4994297;28;20480;-82
2022/06/02 12:36:10;;;;;;;26.48;11.65;;;;;;;28.79;58.42;100674.19;4993996;28;20134;-81
2022/06/02 12:38:51;;;;;;;26.13;10.95;;;;;;;28.99;58.95;100669.09;4993738;28;20027;-81
2022/06/02 12:41:28;;;;;;;27.42;11.63;;;;;;;29.03;57.82;100670.28;4976751;28;20453;-81
2022/06/02 12:44:10;;;;;;;20.45;9.90;;;;;;;28.63;58.03;100663.81;4994208;28;20030;-79
2022/06/02 12:46:57;;;;;;;18.67;9.50;;;;;;;28.76;57.91;100671.91;4993780;28;20027;-81
2022/06/02 12:49:43;;;;;;;21.88;9.85;;;;;;;28.99;57.43;100654.44;4976043;28;20026;-81